JBU1794 MROC-KJFK
Flight info
| Callsign | JBU1794 |
|---|---|
| Flight time | N/A |
| Altitude | 34000 |
| Route | NANJO3R RADON UB767 PZA UZ751 SELEK UL345 FUNKO/N0465F350 DCT SEAZY/N0462F360 DCT ONEWY Q87 ZERBO/N0463F350 Q87 FEMON |
| Aircraft | A21N/M-SDE2E3FGHIRWXY/LB1 |
Departure
| Time | 2026-05-08 23:27 |
|---|---|
| Airport | Juan Santamaría International Airport (MROC) |
Arrival
| Time | N/A |
|---|---|
| Airport | John F. Kennedy International Airport (KJFK) |
| Time | Latitude | Longitude | Altitude | Speed | Heading |
|---|---|---|---|---|---|
| 2026-05-08 22:56 | 9.99776 | -84.20278 | 3033 ft | 0 kts | 340° |
| 2026-05-08 23:12 | 9.99775 | -84.20278 | 3033 ft | 0 kts | 340° |
| 2026-05-08 23:12 | 9.99767 | -84.20275 | 3033 ft | 2 kts | 332° |
| 2026-05-08 23:12 | 9.99753 | -84.20267 | 3033 ft | 2 kts | 335° |
| 2026-05-08 23:13 | 9.99740 | -84.20261 | 3033 ft | 2 kts | 335° |
| 2026-05-08 23:13 | 9.99729 | -84.20256 | 3032 ft | 1 kts | 341° |
| 2026-05-08 23:13 | 9.99723 | -84.20257 | 3032 ft | 1 kts | 46° |
| 2026-05-08 23:13 | 9.99720 | -84.20262 | 3032 ft | 1 kts | 77° |
| 2026-05-08 23:14 | 9.99719 | -84.20266 | 3032 ft | 0 kts | 70° |
| 2026-05-08 23:16 | 9.99719 | -84.20267 | 3032 ft | 0 kts | 70° |
| 2026-05-08 23:16 | 9.99719 | -84.20266 | 3032 ft | 0 kts | 70° |
| 2026-05-08 23:16 | 9.99727 | -84.20247 | 3033 ft | 4 kts | 67° |
| 2026-05-08 23:16 | 9.99738 | -84.20220 | 3034 ft | 3 kts | 69° |
| 2026-05-08 23:17 | 9.99746 | -84.20198 | 3035 ft | 3 kts | 68° |
| 2026-05-08 23:17 | 9.99753 | -84.20180 | 3036 ft | 2 kts | 70° |
| 2026-05-08 23:17 | 9.99760 | -84.20161 | 3037 ft | 3 kts | 69° |
| 2026-05-08 23:17 | 9.99774 | -84.20123 | 3039 ft | 7 kts | 69° |
| 2026-05-08 23:18 | 9.99794 | -84.20064 | 3040 ft | 10 kts | 76° |
| 2026-05-08 23:18 | 9.99756 | -84.19997 | 3040 ft | 14 kts | 153° |
| 2026-05-08 23:18 | 9.99640 | -84.19952 | 3038 ft | 19 kts | 159° |
| 2026-05-08 23:18 | 9.99601 | -84.19863 | 3039 ft | 14 kts | 79° |
| 2026-05-08 23:19 | 9.99630 | -84.19778 | 3042 ft | 11 kts | 68° |
| 2026-05-08 23:19 | 9.99654 | -84.19713 | 3045 ft | 8 kts | 69° |
| 2026-05-08 23:19 | 9.99673 | -84.19662 | 3047 ft | 7 kts | 69° |
| 2026-05-08 23:19 | 9.99694 | -84.19605 | 3048 ft | 9 kts | 70° |
| 2026-05-08 23:20 | 9.99722 | -84.19538 | 3050 ft | 10 kts | 51° |
| 2026-05-08 23:20 | 9.99783 | -84.19527 | 3052 ft | 9 kts | 331° |
| 2026-05-08 23:20 | 9.99796 | -84.19533 | 3052 ft | 0 kts | 339° |
| 2026-05-08 23:26 | 9.99808 | -84.19538 | 3052 ft | 4 kts | 339° |
| 2026-05-08 23:26 | 9.99853 | -84.19556 | 3053 ft | 9 kts | 332° |
| 2026-05-08 23:26 | 9.99864 | -84.19623 | 3052 ft | 15 kts | 246° |
| 2026-05-08 23:26 | 9.99747 | -84.19936 | 3043 ft | 82 kts | 249° |
| 2026-05-08 23:27 | 9.99460 | -84.20700 | 3005 ft | 144 kts | 250° |
| 2026-05-08 23:27 | 9.99043 | -84.21814 | 3008 ft | 189 kts | 249° |
| 2026-05-08 23:27 | 9.98560 | -84.23106 | 3364 ft | 201 kts | 249° |
| 2026-05-08 23:27 | 9.98056 | -84.24458 | 3829 ft | 207 kts | 250° |
| 2026-05-08 23:28 | 9.97657 | -84.25892 | 4207 ft | 218 kts | 261° |
| 2026-05-08 23:28 | 9.97510 | -84.27425 | 4799 ft | 218 kts | 264° |
| 2026-05-08 23:28 | 9.97515 | -84.28982 | 5126 ft | 232 kts | 288° |
| 2026-05-08 23:28 | 9.98432 | -84.30347 | 5417 ft | 246 kts | 324° |
| 2026-05-08 23:29 | 10.00032 | -84.31136 | 5748 ft | 261 kts | 340° |
| 2026-05-08 23:29 | 10.01790 | -84.31765 | 6176 ft | 273 kts | 340° |
| 2026-05-08 23:29 | 10.03568 | -84.32450 | 6813 ft | 275 kts | 338° |
| 2026-05-08 23:29 | 10.05320 | -84.33189 | 7669 ft | 269 kts | 336° |